Map

Track Data

SID SEASON NUMBER BASIN SUBBASIN NAME ISO_TIME NATURE LAT LON WMO_WIND WMO_PRES WMO_AGENCY TRACK_TYPE DIST2LAND LANDFALL IFLAG USA_AGENCY USA_ATCF_ID USA_LAT USA_LON USA_RECORD USA_STATUS USA_WIND USA_PRES USA_SSHS USA_R34_NE USA_R34_SE USA_R34_SW USA_R34_NW USA_R50_NE USA_R50_SE USA_R50_SW USA_R50_NW USA_R64_NE USA_R64_SE USA_R64_SW USA_R64_NW USA_POCI USA_ROCI USA_RMW USA_EYE TOKYO_LAT TOKYO_LON TOKYO_GRADE TOKYO_WIND TOKYO_PRES TOKYO_R50_DIR TOKYO_R50_LONG TOKYO_R50_SHORT TOKYO_R30_DIR TOKYO_R30_LONG TOKYO_R30_SHORT TOKYO_LAND CMA_LAT CMA_LON CMA_CAT CMA_WIND CMA_PRES HKO_LAT HKO_LON HKO_CAT HKO_WIND HKO_PRES NEWDELHI_LAT NEWDELHI_LON NEWDELHI_GRADE NEWDELHI_WIND NEWDELHI_PRES NEWDELHI_CI NEWDELHI_DP NEWDELHI_POCI REUNION_LAT REUNION_LON REUNION_TYPE REUNION_WIND REUNION_PRES REUNION_TNUM REUNION_CI REUNION_RMW REUNION_R34_NE REUNION_R34_SE REUNION_R34_SW REUNION_R34_NW REUNION_R50_NE REUNION_R50_SE REUNION_R50_SW REUNION_R50_NW REUNION_R64_NE REUNION_R64_SE REUNION_R64_SW REUNION_R64_NW BOM_LAT BOM_LON BOM_TYPE BOM_WIND BOM_PRES BOM_TNUM BOM_CI BOM_RMW BOM_R34_NE BOM_R34_SE BOM_R34_SW BOM_R34_NW BOM_R50_NE BOM_R50_SE BOM_R50_SW BOM_R50_NW BOM_R64_NE BOM_R64_SE BOM_R64_SW BOM_R64_NW BOM_ROCI BOM_POCI BOM_EYE BOM_POS_METHOD BOM_PRES_METHOD NADI_LAT NADI_LON NADI_CAT NADI_WIND NADI_PRES WELLINGTON_LAT WELLINGTON_LON WELLINGTON_WIND WELLINGTON_PRES DS824_LAT DS824_LON DS824_STAGE DS824_WIND DS824_PRES TD9636_LAT TD9636_LON TD9636_STAGE TD9636_WIND TD9636_PRES TD9635_LAT TD9635_LON TD9635_WIND TD9635_PRES TD9635_ROCI NEUMANN_LAT NEUMANN_LON NEUMANN_CLASS NEUMANN_WIND NEUMANN_PRES MLC_LAT MLC_LON MLC_CLASS MLC_WIND MLC_PRES USA_GUST BOM_GUST BOM_GUST_PER REUNION_GUST REUNION_GUST_PER USA_SEAHGT USA_SEARAD_NE USA_SEARAD_SE USA_SEARAD_SW USA_SEARAD_NW STORM_SPEED STORM_DIR
1953049S20036 1953 11 SI MM NOT_NAMED 1953-02-18 06:00:00 TS -19.9000 36.0250 reunion main 84 84 O____O___OO___ jtwc_sh SH121953 -19.9000 35.5000 -1 -19.9000 37.6000 99 9.90000 -19.9000 35.5000 TC 25 -19.9000 35.5000 7 15 113
1953049S20036 1953 11 SI MM NOT_NAMED 1953-02-18 09:00:00 TS -20.1905 36.7440 main 151 151 P____P___PP___ SH121953 -20.1409 36.3721 -1 -20.3018 37.9065 99 -20.1409 36.3721 TC 25 -20.1784 36.3254 7 15 114
1953049S20036 1953 11 SI MM NOT_NAMED 1953-02-18 12:00:00 TS -20.4893 37.4367 main 212 212 O____P___OP___ jtwc_sh SH121953 -20.4000 37.2000 -1 -20.7033 38.2147 99 -20.4000 37.2000 TC 25 -20.4538 37.1320 7 14 116
1953049S20036 1953 11 SI MM NOT_NAMED 1953-02-18 15:00:00 TS -20.8040 38.0781 main 283 283 P____P___PP___ SH121953 -20.6922 37.9451 -1 -21.1043 38.5247 99 -20.6922 37.9451 TC 30 -20.7272 37.8976 7 13 119
1953049S20036 1953 11 SI MM NOT_NAMED 1953-02-18 18:00:00 TS -21.1262 38.6591 main 351 348 O____P___OO___ jtwc_sh SH121953 -21.0000 38.6000 -1 -21.5048 38.8363 99 -21.0000 38.6000 TC 35 -21.0000 38.6000 2 12 122
1953049S20036 1953 11 SI MM NOT_NAMED 1953-02-18 21:00:00 TS -21.4381 39.1834 main 392 373 P____P___PP___ SH121953 -21.2846 39.1805 -1 -21.9046 39.1497 99 -21.2846 39.1805 TC 35 -21.2784 39.2228 2 11 125
1953049S20036 1953 11 SI MM NOT_NAMED 1953-02-19 00:00:00 TS -21.7725 39.6592 main 363 319 O____P___OP___ jtwc_sh SH121953 -21.6000 39.7000 -1 -22.3039 39.4648 99 -21.6000 39.7000 TC 35 -21.5860 39.7722 2 11 129
1953049S20036 1953 11 SI MM NOT_NAMED 1953-02-19 03:00:00 TS -22.1407 40.1219 main 319 278 P____P___PP___ SH121953 -21.9549 40.2228 -1 -22.7023 39.7815 99 -21.9549 40.2228 TC 50 -21.9507 40.2604 2 12 134
1953049S20036 1953 11 SI MM NOT_NAMED 1953-02-19 06:00:00 TS -22.5750 40.5500 reunion main 269 242 O____O___OO___ jtwc_sh SH121953 -22.4000 40.7000 -1 -23.1000 40.1000 99 9.90000 -22.4000 40.7000 TC 65 -22.4000 40.7000 4 13 141
1953049S20036 1953 11 SI MM NOT_NAMED 1953-02-19 09:00:00 TS -23.1288 40.9799 main 242 223 P____P___PP___ SH121953 -22.9548 41.1228 -1 -23.6666 40.5354 99 -22.9548 41.1228 TC 65 -22.9390 41.1387 4 14 147
1953049S20036 1953 11 SI MM NOT_NAMED 1953-02-19 12:00:00 TS -23.7493 41.3770 main 223 200 O____P___OP___ jtwc_sh SH121953 -23.6000 41.5000 -1 -24.2325 40.9750 99 -23.6000 41.5000 TC 65 -23.5646 41.5329 4 15 151
1953049S20036 1953 11 SI MM NOT_NAMED 1953-02-19 15:00:00 TS -24.3951 41.7625 main 195 177 P____P___PP___ SH121953 -24.2625 41.8728 -1 -24.7974 41.4188 99 -24.2625 41.8728 TC 65 -24.2580 41.8857 4 15 153
1953049S20036 1953 11 SI MM NOT_NAMED 1953-02-19 18:00:00 TS -25.0903 42.1167 main 180 174 O____P___OO___ jtwc_sh SH121953 -25.0000 42.2000 -1 -25.3612 41.8667 99 -25.0000 42.2000 TC 65 -25.0000 42.2000 4 16 158
1953049S20036 1953 11 SI MM NOT_NAMED 1953-02-19 21:00:00 TS -25.8624 42.4280 main 189 180 P____P___PP___ SH121953 -25.8424 42.4654 -1 -25.9235 42.3187 99 -25.8424 42.4654 TC 65 -25.8412 42.4624 4 17 161
1953049S20036 1953 11 SI MM NOT_NAMED 1953-02-20 00:00:00 TS -26.6598 42.7132 main 230 230 O____P___OP___ jtwc_sh SH121953 -26.7000 42.7000 -1 -26.4842 42.7750 99 -26.7000 42.7000 TC 65 -26.7112 42.6934 4 17 163
1953049S20036 1953 11 SI MM NOT_NAMED 1953-02-20 03:00:00 TS -27.4562 42.9717 main 282 282 P____P___PP___ SH121953 -27.5248 42.9278 -1 -27.0431 43.2354 99 -27.5248 42.9278 TC 65 -27.5256 42.9277 4 16 163
1953049S20036 1953 11 SI MM NOT_NAMED 1953-02-20 06:00:00 TS -28.1538 43.2385 reunion main 345 341 O____O___OO___ jtwc_sh SH121953 -28.2000 43.2000 -1 -27.6000 43.7000 99 9.90000 -28.2000 43.2000 TC 65 -28.2000 43.2000 4 13 156
1953049S20036 1953 11 SI MM NOT_NAMED 1953-02-20 09:00:00 TS -28.6358 43.5766 main 370 370 P________PP___ SH121953 -28.6325 43.5778 -1 99 -28.6325 43.5778 TC 65 -28.6425 43.5743 4 10 139
1953049S20036 1953 11 SI MM NOT_NAMED 1953-02-20 12:00:00 TS -28.9126 43.9955 main 387 387 O________OP___ jtwc_sh SH121953 -28.9000 44.0000 -1 99 -28.9000 44.0000 TC 65 -28.9379 43.9865 4 9 124
1953049S20036 1953 11 SI MM NOT_NAMED 1953-02-20 15:00:00 TS -29.1331 44.4120 main 398 398 P________PP___ SH121953 -29.1300 44.4152 -1 99 -29.1300 44.4152 TC 65 -29.1394 44.4054 4 8 119
1953049S20036 1953 11 SI MM NOT_NAMED 1953-02-20 18:00:00 TS -29.3000 44.8000 main 415 414 O________OO___ jtwc_sh SH121953 -29.3000 44.8000 -1 99 -29.3000 44.8000 TC 65 -29.3000 44.8000 4 7 118
1953049S20036 1953 11 SI MM NOT_NAMED 1953-02-20 21:00:00 TS -29.4662 45.1188 main 435 435 P________PP___ SH121953 -29.4498 45.1153 -1 99 -29.4498 45.1153 TC 65 -29.4990 45.1259 4 6 121
1953049S20036 1953 11 SI MM NOT_NAMED 1953-02-21 00:00:00 TS -29.6239 45.4080 main 446 446 O________OP___ jtwc_sh SH121953 -29.6000 45.4000 -1 99 -29.6000 45.4000 TC 65 -29.6717 45.4241 4 6 124
1953049S20036 1953 11 SI MM NOT_NAMED 1953-02-21 03:00:00 TS -29.8061 45.7034 main 469 469 P________PP___ SH121953 -29.7924 45.7001 -1 99 -29.7924 45.7001 TC 65 -29.8335 45.7101 4 6 126
1953049S20036 1953 11 SI MM NOT_NAMED 1953-02-21 06:00:00 TS -30.0000 46.0000 main 493 493 O________OO___ jtwc_sh SH121953 -30.0000 46.0000 -1 -30.0000 46.0000 TC 65 -30.0000 46.0000 4 7 127
1953049S20036 1953 11 SI MM NOT_NAMED 1953-02-21 09:00:00 TS -30.1988 46.3011 main 519 519 P________PP___ SH121953 -30.1999 46.2927 -1 -30.1999 46.2927 TC 65 -30.1967 46.3179 4 7 127
1953049S20036 1953 11 SI MM NOT_NAMED 1953-02-21 12:00:00 TS -30.3999 46.6142 main 546 546 O________OP___ jtwc_sh SH121953 -30.4000 46.6000 -1 -30.4000 46.6000 TC 65 -30.3998 46.6427 4 7 125
1953049S20036 1953 11 SI MM NOT_NAMED 1953-02-21 15:00:00 TS -30.6010 46.9571 main 577 577 P________PP___ SH121953 -30.6000 46.9501 -1 -30.6000 46.9501 TC 65 -30.6030 46.9711 4 7 124
1953049S20036 1953 11 SI MM NOT_NAMED 1953-02-21 18:00:00 TS -30.8000 47.3000 main 606 606 O________OO___ jtwc_sh SH121953 -30.8000 47.3000 -1 -30.8000 47.3000 TC 65 -30.8000 47.3000 4 7 126
1953049S20036 1953 11 SI MM NOT_NAMED 1953-02-21 21:00:00 TS -31.0003 47.6090 main 636 636 P________PP___ SH121953 -31.0073 47.6001 -1 -31.0073 47.6001 TC 50 -30.9862 47.6268 4 7 126
1953049S20036 1953 11 SI MM NOT_NAMED 1953-02-22 00:00:00 TS -31.1877 47.9173 main 667 667 O________OP___ jtwc_sh SH121953 -31.2000 47.9000 -1 -31.2000 47.9000 TC 35 -31.1631 47.9518 4 7 123
1953049S20036 1953 11 SI MM NOT_NAMED 1953-02-22 03:00:00 TS -31.3513 48.2501 main 702 702 P________PP___ SH121953 -31.3603 48.2373 -1 -31.3603 48.2373 TC 30 -31.3334 48.2758 4 7 118
1953049S20036 1953 11 SI MM NOT_NAMED 1953-02-22 06:00:00 TS -31.5000 48.6000 main 724 O________OO___ jtwc_sh SH121953 -31.5000 48.6000 -1 -31.5000 48.6000 TC 25 -31.5000 48.6000 1 7 116

About IBTrACS Database

This database is a web-friendly format of International Best Track Archive for Climate Stewardship (IBTrACS), a global best track data archive curated by NOAA dating back to 1842.

Updated: 2021-12-06